Time;durP1;ratioP1;P1;durP2;ratioP2;P2;SDS_P1;SDS_P2;PMS_P1;PMS_P2;Temp;Humidity;BMP_temperature;BMP_pressure;BME280_temperature;BME280_humidity;BME280_pressure;Samples;Min_cycle;Max_cycle;Signal;HPM_P1;HPM_P2
2023/05/07 00:02:42;;;;;;;3.55;2.83;;;;;;;19.66;65.49;101422.84;19885773;29;20055;-61
2023/05/07 00:12:44;;;;;;;2.80;2.45;;;;;;;19.64;65.42;101419.44;19884559;29;20504;-61
2023/05/07 00:22:46;;;;;;;2.92;2.63;;;;;;;19.64;65.62;101429.41;19913073;29;20499;-61
2023/05/07 00:32:48;;;;;;;3.40;3.10;;;;;;;19.63;65.47;101430.41;19907374;29;20054;-61
2023/05/07 00:42:50;;;;;;;3.60;3.15;;;;;;;19.62;65.24;101431.38;19928184;29;20062;-61
2023/05/07 00:52:52;;;;;;;3.60;3.15;;;;;;;19.62;65.05;101442.19;19881256;29;20059;-61
2023/05/07 01:02:53;;;;;;;4.18;3.45;;;;;;;19.61;65.17;101445.88;19887125;29;20047;-61
2023/05/07 01:12:57;;;;;;;4.10;3.70;;;;;;;19.60;65.03;101438.78;19897353;29;20050;-60
2023/05/07 01:23:00;;;;;;;4.22;3.25;;;;;;;19.58;64.70;101429.94;19917972;29;20050;-61
2023/05/07 01:33:10;;;;;;;4.10;3.70;;;;;;;19.58;64.46;101435.34;19866664;29;20746;-61
2023/05/07 01:43:12;;;;;;;4.50;3.38;;;;;;;19.52;64.55;101429.50;19863192;29;20107;-61
2023/05/07 01:53:14;;;;;;;4.82;4.20;;;;;;;19.56;64.24;101427.38;19877334;29;20039;-61
2023/05/07 02:03:15;;;;;;;4.43;3.53;;;;;;;19.55;63.90;101431.94;19882225;29;20507;-61
2023/05/07 02:13:31;;;;;;;4.20;3.53;;;;;;;19.54;64.00;101441.03;19899521;29;20054;-61
2023/05/07 02:23:33;;;;;;;4.78;4.28;;;;;;;19.53;63.44;101427.63;19890041;29;20051;-61
2023/05/07 02:33:36;;;;;;;5.13;4.38;;;;;;;19.53;63.34;101451.94;19926567;29;20055;-61
2023/05/07 02:43:40;;;;;;;4.95;4.13;;;;;;;19.51;63.03;101452.09;19889942;29;20062;-61
2023/05/07 02:53:42;;;;;;;5.20;4.70;;;;;;;19.52;62.99;101452.94;19888956;29;20073;-61
2023/05/07 03:03:44;;;;;;;4.82;4.32;;;;;;;19.51;62.85;101446.69;19907266;29;20086;-61
2023/05/07 03:13:45;;;;;;;5.97;5.28;;;;;;;19.50;62.50;101436.88;19922657;29;20609;-61
2023/05/07 03:23:47;;;;;;;6.82;5.65;;;;;;;19.50;62.17;101433.31;19886470;29;20047;-61
2023/05/07 03:33:53;;;;;;;6.20;5.60;;;;;;;19.50;62.00;101434.19;19889876;29;20058;-61
2023/05/07 03:43:56;;;;;;;8.95;5.88;;;;;;;19.50;62.53;101442.28;19874069;29;20054;-61
2023/05/07 03:53:58;;;;;;;7.50;5.82;;;;;;;19.50;62.33;101450.38;19901970;29;20059;-61
2023/05/07 04:04:03;;;;;;;6.63;5.53;;;;;;;19.51;62.66;101467.44;19872135;29;20596;-61
2023/05/07 04:14:05;;;;;;;7.28;5.78;;;;;;;19.50;62.55;101469.28;19858859;29;20126;-61
2023/05/07 04:24:07;;;;;;;8.13;6.32;;;;;;;19.50;62.60;101461.19;19883662;29;20055;-61
2023/05/07 04:34:09;;;;;;;7.93;6.32;;;;;;;19.48;62.47;101465.88;19879150;29;20512;-61
2023/05/07 04:44:11;;;;;;;5.75;5.05;;;;;;;19.49;62.38;101470.28;19893254;29;20515;-61
2023/05/07 04:54:14;;;;;;;8.57;5.45;;;;;;;19.49;63.87;101475.69;19872232;29;20043;-62
2023/05/07 05:04:16;;;;;;;5.40;4.82;;;;;;;19.50;63.41;101493.59;19876541;29;20137;-62
2023/05/07 05:14:17;;;;;;;6.15;4.78;;;;;;;19.52;63.49;101496.13;19871588;29;20051;-60
2023/05/07 05:24:19;;;;;;;9.88;5.95;;;;;;;19.52;63.08;101494.31;19909215;29;20065;-60
2023/05/07 05:34:21;;;;;;;6.75;6.05;;;;;;;19.50;63.16;101481.91;19865397;29;20793;-59
2023/05/07 05:44:23;;;;;;;6.20;5.57;;;;;;;19.48;62.97;101508.19;19858395;29;20057;-59
2023/05/07 05:54:26;;;;;;;5.18;4.68;;;;;;;19.45;62.88;101505.75;19864287;29;20083;-59
2023/05/07 06:04:28;;;;;;;5.78;5.22;;;;;;;19.46;63.22;101508.34;19867275;29;20069;-60
2023/05/07 06:14:30;;;;;;;6.05;5.45;;;;;;;19.46;63.28;101502.94;19893947;29;20085;-60
2023/05/07 06:24:32;;;;;;;5.30;4.57;;;;;;;19.48;63.63;101513.59;19874323;29;20564;-59
2023/05/07 06:34:34;;;;;;;5.13;4.63;;;;;;;19.48;63.42;101522.56;19861548;29;20103;-60
2023/05/07 06:44:36;;;;;;;5.30;4.80;;;;;;;19.47;63.21;101542.47;19890289;29;20059;-60
2023/05/07 06:54:46;;;;;;;6.60;5.05;;;;;;;19.44;63.29;101540.00;19872284;29;20138;-60
2023/05/07 07:04:50;;;;;;;4.87;4.37;;;;;;;19.41;63.38;101548.34;19895807;29;20107;-61
2023/05/07 07:14:53;;;;;;;5.35;4.50;;;;;;;19.42;63.65;101556.34;19858520;29;20078;-62
2023/05/07 07:24:56;;;;;;;5.47;4.90;;;;;;;19.43;63.55;101562.59;19911976;29;20048;-61
2023/05/07 07:34:58;;;;;;;5.38;4.60;;;;;;;19.45;63.74;101555.25;19872202;29;20055;-62
2023/05/07 07:45:01;;;;;;;6.28;4.55;;;;;;;19.49;64.25;101558.53;19890472;29;20055;-62
2023/05/07 07:55:07;;;;;;;5.28;4.70;;;;;;;19.53;64.48;101559.97;19851881;29;20062;-61
2023/05/07 08:05:10;;;;;;;5.18;4.68;;;;;;;19.58;64.69;101559.59;19841228;29;20091;-61
2023/05/07 08:15:11;;;;;;;6.32;5.03;;;;;;;19.65;66.37;101567.00;19860819;29;20606;-61
2023/05/07 08:25:13;;;;;;;6.57;4.65;;;;;;;19.70;67.02;101577.44;19864997;29;20057;-60
2023/05/07 08:35:15;;;;;;;5.60;4.40;;;;;;;19.74;66.83;101576.19;19866056;29;20047;-61
2023/05/07 08:45:17;;;;;;;6.35;5.15;;;;;;;19.79;67.03;101570.38;19850650;29;20393;-62
2023/05/07 08:55:20;;;;;;;5.72;4.80;;;;;;;19.83;66.94;101572.66;19877988;29;20137;-61
2023/05/07 09:05:22;;;;;;;5.45;4.82;;;;;;;19.91;67.14;101571.22;19856579;29;20050;-62
2023/05/07 09:15:25;;;;;;;4.75;4.28;;;;;;;19.97;67.13;101571.50;19866056;29;20069;-62
2023/05/07 09:25:29;;;;;;;5.05;4.55;;;;;;;20.09;66.92;101579.53;19873594;29;20051;-62
2023/05/07 09:35:32;;;;;;;6.10;4.20;;;;;;;20.19;66.69;101591.28;19905877;29;20046;-62
2023/05/07 09:45:40;;;;;;;6.32;4.53;;;;;;;20.26;66.14;101569.94;19858459;29;20693;-61
2023/05/07 09:55:43;;;;;;;6.60;4.95;;;;;;;20.27;65.74;101567.09;19886529;29;20104;-61
2023/05/07 10:05:47;;;;;;;7.65;4.57;;;;;;;20.28;65.12;101560.72;19880856;29;20053;-61
2023/05/07 10:15:50;;;;;;;5.32;4.25;;;;;;;20.32;64.65;101566.69;19866662;29;20047;-61
2023/05/07 10:25:54;;;;;;;4.80;4.10;;;;;;;20.33;64.36;101579.25;19853972;29;20057;-61
2023/05/07 10:36:04;;;;;;;4.20;3.80;;;;;;;20.39;64.44;101569.72;19852733;29;22152;-62
2023/05/07 10:46:20;;;;;;;3.30;2.97;;;;;;;20.49;64.75;101591.38;19826853;29;20066;-63
2023/05/07 10:56:48;;;;;;;6.68;3.83;;;;;;;20.55;64.72;101575.47;19894593;29;20047;-63
2023/05/07 11:07:13;;;;;;;4.95;4.45;;;;;;;20.59;64.85;101570.63;19879427;29;20062;-63
2023/05/07 11:17:23;;;;;;;4.38;3.97;;;;;;;20.62;64.71;101574.94;19871071;29;20481;-63
2023/05/07 11:27:34;;;;;;;4.85;4.40;;;;;;;20.68;64.89;101556.28;19863378;29;20051;-64
2023/05/07 11:37:37;;;;;;;4.25;3.85;;;;;;;20.75;64.74;101555.72;19894004;29;20119;-64
2023/05/07 11:47:41;;;;;;;3.50;3.20;;;;;;;20.79;64.72;101565.31;19889468;29;20054;-65
2023/05/07 11:57:45;;;;;;;4.15;3.75;;;;;;;20.82;64.70;101570.44;19862325;29;20100;-64
2023/05/07 12:07:47;;;;;;;4.20;3.33;;;;;;;20.83;64.46;101577.56;19868940;29;20055;-64
2023/05/07 12:17:50;;;;;;;4.68;3.92;;;;;;;20.90;65.36;101569.72;19857347;29;21182;-65
2023/05/07 12:27:52;;;;;;;4.43;4.03;;;;;;;20.95;66.70;101587.28;19867655;29;20047;-64
2023/05/07 12:37:55;;;;;;;3.50;3.20;;;;;;;20.93;68.58;101564.91;19876283;29;20047;-65
2023/05/07 12:48:01;;;;;;;4.07;3.67;;;;;;;21.03;70.37;101574.88;19878744;29;20051;-64
2023/05/07 12:58:03;;;;;;;3.83;3.20;;;;;;;21.15;70.35;101587.28;19856961;29;20051;-64
2023/05/07 13:08:05;;;;;;;3.70;3.40;;;;;;;21.17;69.91;101579.03;19869313;29;20051;-64
2023/05/07 13:18:07;;;;;;;4.55;4.15;;;;;;;21.18;69.15;101581.56;19844848;29;20055;-64
2023/05/07 13:28:08;;;;;;;4.70;4.30;;;;;;;21.15;68.66;101590.84;19838840;29;20701;-63
2023/05/07 13:38:12;;;;;;;3.78;3.47;;;;;;;21.18;68.42;101602.41;19863438;29;20055;-64
2023/05/07 13:48:13;;;;;;;3.55;3.25;;;;;;;21.18;68.43;101586.16;19849251;29;20123;-64
2023/05/07 13:58:15;;;;;;;3.67;3.38;;;;;;;21.17;68.20;101588.00;19855552;29;20054;-64
2023/05/07 14:08:19;;;;;;;3.22;2.92;;;;;;;21.15;68.47;101582.75;19861434;29;20061;-62
2023/05/07 14:18:21;;;;;;;5.57;3.80;;;;;;;21.15;69.07;101598.09;19849808;29;20054;-62
2023/05/07 14:28:23;;;;;;;3.45;3.08;;;;;;;21.13;68.75;101589.28;19866804;29;20076;-63
2023/05/07 14:38:25;;;;;;;4.15;3.42;;;;;;;21.12;68.13;101598.41;19866021;29;20054;-62
2023/05/07 14:48:26;;;;;;;3.85;2.72;;;;;;;21.09;67.35;101612.22;19867809;29;20059;-62
2023/05/07 14:58:28;;;;;;;3.33;3.00;;;;;;;21.08;66.88;101618.63;19866203;29;20159;-63
2023/05/07 15:08:30;;;;;;;3.25;2.95;;;;;;;21.11;67.20;101618.34;19846513;29;20116;-63
2023/05/07 15:18:31;;;;;;;4.15;2.90;;;;;;;21.14;68.15;101626.19;19866840;29;20047;-63
2023/05/07 15:28:33;;;;;;;3.00;2.40;;;;;;;21.18;68.39;101629.47;19872328;29;20090;-62
2023/05/07 15:38:35;;;;;;;3.28;2.47;;;;;;;21.22;68.32;101620.06;19865787;29;20446;-62
2023/05/07 15:48:36;;;;;;;2.25;2.05;;;;;;;21.24;68.08;101616.25;19866030;29;20047;-62
2023/05/07 15:58:38;;;;;;;2.78;2.50;;;;;;;21.24;68.06;101616.25;19839521;29;20543;-62
2023/05/07 16:08:40;;;;;;;5.15;3.22;;;;;;;21.27;69.02;101613.25;19882560;29;20059;-63
2023/05/07 16:18:42;;;;;;;3.25;2.95;;;;;;;21.25;67.83;101615.25;19890982;29;20062;-63
2023/05/07 16:28:43;;;;;;;2.33;2.13;;;;;;;21.22;67.51;101620.94;19880939;29;20051;-64
2023/05/07 16:38:45;;;;;;;3.92;2.50;;;;;;;21.12;67.64;101623.63;19882760;29;20058;-68
2023/05/07 16:48:47;;;;;;;3.58;2.40;;;;;;;21.13;68.04;101624.47;19881282;29;20478;-66
2023/05/07 16:58:48;;;;;;;2.50;1.92;;;;;;;21.10;68.53;101638.28;19910322;29;20071;-66
2023/05/07 17:08:50;;;;;;;4.55;2.30;;;;;;;21.08;68.50;101635.75;19880679;29;20622;-66
2023/05/07 17:18:58;;;;;;;2.13;1.92;;;;;;;21.09;68.60;101631.16;20957784;28;20406;-66
2023/05/07 17:29:00;;;;;;;2.30;2.10;;;;;;;21.04;68.59;101636.16;20900977;28;20054;-65
2023/05/07 17:39:02;;;;;;;2.30;2.00;;;;;;;21.04;68.42;101655.97;20878844;28;20464;-66
2023/05/07 17:49:03;;;;;;;3.08;2.10;;;;;;;21.00;68.17;101660.78;20864586;28;20057;-66
2023/05/07 17:59:05;;;;;;;3.35;2.13;;;;;;;20.99;68.14;101666.31;20872347;28;20060;-66
2023/05/07 18:09:07;;;;;;;1.92;1.83;;;;;;;20.95;68.00;101668.47;20884047;28;20051;-65
2023/05/07 18:19:08;;;;;;;2.55;2.30;;;;;;;20.93;67.67;101697.53;20862530;28;20100;-66
2023/05/07 18:29:10;;;;;;;3.88;2.00;;;;;;;20.90;67.56;101695.09;20820205;28;20057;-66
2023/05/07 18:39:11;;;;;;;2.28;2.08;;;;;;;20.88;67.28;101709.75;20802697;28;20045;-66
2023/05/07 18:49:13;;;;;;;2.25;2.05;;;;;;;20.85;67.07;101725.25;20810535;28;20053;-66
2023/05/07 18:59:14;;;;;;;2.42;2.20;;;;;;;20.82;66.82;101728.25;20811378;28;20053;-66
2023/05/07 19:09:16;;;;;;;2.85;2.33;;;;;;;20.80;66.64;101735.66;20803290;28;20128;-66
2023/05/07 19:19:17;;;;;;;2.20;2.00;;;;;;;20.78;66.58;101744.88;20801594;28;20050;-66
2023/05/07 19:29:19;;;;;;;2.50;2.30;;;;;;;20.77;66.40;101748.53;20824082;28;20053;-66
2023/05/07 19:39:21;;;;;;;2.25;2.05;;;;;;;20.72;66.11;101755.22;20796302;28;20521;-66
2023/05/07 19:49:22;;;;;;;1.90;1.80;;;;;;;20.72;65.95;101765.19;20800863;28;20053;-66
2023/05/07 19:59:24;;;;;;;2.30;2.10;;;;;;;20.69;65.83;101771.72;20798011;28;20049;-66
2023/05/07 20:09:27;;;;;;;2.37;2.07;;;;;;;20.68;65.74;101771.88;20798381;28;20103;-66
2023/05/07 20:19:29;;;;;;;1.73;1.63;;;;;;;20.66;65.31;101782.81;20795855;28;20053;-66
2023/05/07 20:29:32;;;;;;;1.83;1.73;;;;;;;20.55;64.89;101770.25;20826909;28;20056;-66
2023/05/07 20:39:33;;;;;;;2.15;1.80;;;;;;;20.62;64.76;101804.88;20819650;28;20061;-66
2023/05/07 20:49:35;;;;;;;1.70;1.60;;;;;;;20.58;64.46;101815.09;20817193;28;20520;-66
2023/05/07 20:59:38;;;;;;;2.15;1.90;;;;;;;20.58;64.29;101813.25;20798226;28;20123;-66
2023/05/07 21:09:41;;;;;;;2.70;2.03;;;;;;;20.56;64.17;101809.84;20804412;28;20053;-66
2023/05/07 21:19:43;;;;;;;1.90;1.80;;;;;;;20.55;63.85;101828.88;20807151;28;20049;-66
2023/05/07 21:29:45;;;;;;;2.05;1.92;;;;;;;20.53;63.64;101833.56;20804401;28;20454;-66
2023/05/07 21:39:47;;;;;;;2.25;2.00;;;;;;;20.50;63.42;101826.56;20806779;28;20055;-66
2023/05/07 21:49:48;;;;;;;2.00;1.80;;;;;;;20.49;63.12;101827.56;20804030;28;20081;-66
2023/05/07 21:59:50;;;;;;;1.85;1.75;;;;;;;20.47;63.18;101828.69;20813055;28;20058;-66
2023/05/07 22:09:51;;;;;;;2.30;2.10;;;;;;;20.46;62.89;101829.69;20822298;28;20529;-66
2023/05/07 22:19:53;;;;;;;2.83;2.30;;;;;;;20.43;62.63;101845.19;20818951;28;20420;-66
2023/05/07 22:29:54;;;;;;;2.10;1.90;;;;;;;20.42;62.47;101848.88;20822980;28;20453;-66
2023/05/07 22:39:56;;;;;;;2.25;2.00;;;;;;;20.42;62.40;101861.53;20819671;28;20050;-66
2023/05/07 22:49:58;;;;;;;2.33;2.13;;;;;;;20.40;62.21;101864.38;20816913;28;20068;-66
2023/05/07 22:59:59;;;;;;;2.55;2.10;;;;;;;20.39;61.78;101862.66;20792668;28;20060;-66
2023/05/07 23:10:01;;;;;;;3.03;2.20;;;;;;;20.38;61.75;101871.75;20786736;28;20057;-66
2023/05/07 23:20:03;;;;;;;2.30;2.10;;;;;;;20.36;61.49;101862.03;20803448;28;20049;-66
2023/05/07 23:30:05;;;;;;;2.60;2.40;;;;;;;20.34;61.26;101853.19;20786190;28;20412;-66
2023/05/07 23:40:07;;;;;;;3.33;2.38;;;;;;;20.31;61.16;101835.38;20804227;28;20468;-66
2023/05/07 23:50:09;;;;;;;2.63;2.42;;;;;;;20.29;61.01;101842.75;20814828;28;20436;-66
